sensor_id;sensor_type;location;lat;lon;timestamp;P1;durP1;ratioP1;P2;durP2;ratioP2
63534;SDS011;55128;50.230;18.944;2023-10-13T00:02:27;31.10;;;27.77;;
63534;SDS011;55128;50.230;18.944;2023-10-13T00:07:28;28.37;;;22.70;;
63534;SDS011;55128;50.230;18.944;2023-10-13T00:12:28;29.33;;;21.03;;
63534;SDS011;55128;50.230;18.944;2023-10-13T00:17:31;34.67;;;24.05;;
63534;SDS011;55128;50.230;18.944;2023-10-13T00:22:32;28.98;;;22.02;;
63534;SDS011;55128;50.230;18.944;2023-10-13T00:27:34;28.13;;;20.77;;
63534;SDS011;55128;50.230;18.944;2023-10-13T00:32:36;27.42;;;21.13;;
63534;SDS011;55128;50.230;18.944;2023-10-13T00:37:39;25.80;;;19.40;;
63534;SDS011;55128;50.230;18.944;2023-10-13T00:42:44;24.88;;;19.33;;
63534;SDS011;55128;50.230;18.944;2023-10-13T00:47:51;22.02;;;18.13;;
63534;SDS011;55128;50.230;18.944;2023-10-13T00:52:57;29.02;;;20.27;;
63534;SDS011;55128;50.230;18.944;2023-10-13T00:57:58;37.10;;;28.13;;
63534;SDS011;55128;50.230;18.944;2023-10-13T01:03:03;32.50;;;24.65;;
63534;SDS011;55128;50.230;18.944;2023-10-13T01:08:07;32.03;;;18.95;;
63534;SDS011;55128;50.230;18.944;2023-10-13T01:13:11;24.60;;;18.77;;
63534;SDS011;55128;50.230;18.944;2023-10-13T01:18:12;25.23;;;17.30;;
63534;SDS011;55128;50.230;18.944;2023-10-13T01:23:14;23.50;;;16.98;;
63534;SDS011;55128;50.230;18.944;2023-10-13T01:28:24;25.05;;;18.65;;
63534;SDS011;55128;50.230;18.944;2023-10-13T01:33:24;20.10;;;16.38;;
63534;SDS011;55128;50.230;18.944;2023-10-13T01:38:28;29.58;;;18.73;;
63534;SDS011;55128;50.230;18.944;2023-10-13T01:43:33;31.20;;;23.58;;
63534;SDS011;55128;50.230;18.944;2023-10-13T01:48:35;23.27;;;17.92;;
63534;SDS011;55128;50.230;18.944;2023-10-13T01:53:40;27.00;;;17.83;;
63534;SDS011;55128;50.230;18.944;2023-10-13T01:58:43;23.83;;;15.55;;
63534;SDS011;55128;50.230;18.944;2023-10-13T02:03:47;24.85;;;17.67;;
63534;SDS011;55128;50.230;18.944;2023-10-13T02:08:49;23.67;;;16.13;;
63534;SDS011;55128;50.230;18.944;2023-10-13T02:13:53;26.27;;;17.20;;
63534;SDS011;55128;50.230;18.944;2023-10-13T02:18:57;26.27;;;16.30;;
63534;SDS011;55128;50.230;18.944;2023-10-13T02:24:04;22.05;;;15.93;;
63534;SDS011;55128;50.230;18.944;2023-10-13T02:29:13;27.85;;;15.98;;
63534;SDS011;55128;50.230;18.944;2023-10-13T02:34:14;23.50;;;17.58;;
63534;SDS011;55128;50.230;18.944;2023-10-13T02:39:14;21.42;;;16.23;;
63534;SDS011;55128;50.230;18.944;2023-10-13T02:44:16;25.40;;;16.75;;
63534;SDS011;55128;50.230;18.944;2023-10-13T02:49:33;23.15;;;16.73;;
63534;SDS011;55128;50.230;18.944;2023-10-13T02:54:37;40.30;;;26.23;;
63534;SDS011;55128;50.230;18.944;2023-10-13T02:59:43;19.60;;;15.60;;
63534;SDS011;55128;50.230;18.944;2023-10-13T03:09:47;22.90;;;15.52;;
63534;SDS011;55128;50.230;18.944;2023-10-13T03:14:53;39.95;;;31.23;;
63534;SDS011;55128;50.230;18.944;2023-10-13T03:19:57;24.77;;;16.17;;
63534;SDS011;55128;50.230;18.944;2023-10-13T03:24:57;29.90;;;24.88;;
63534;SDS011;55128;50.230;18.944;2023-10-13T03:30:13;23.13;;;18.27;;
63534;SDS011;55128;50.230;18.944;2023-10-13T03:35:15;25.75;;;16.88;;
63534;SDS011;55128;50.230;18.944;2023-10-13T03:40:25;25.75;;;19.45;;
63534;SDS011;55128;50.230;18.944;2023-10-13T03:45:25;27.88;;;20.23;;
63534;SDS011;55128;50.230;18.944;2023-10-13T03:50:26;26.30;;;18.67;;
63534;SDS011;55128;50.230;18.944;2023-10-13T03:55:31;24.90;;;17.48;;
63534;SDS011;55128;50.230;18.944;2023-10-13T04:00:35;24.98;;;16.67;;
63534;SDS011;55128;50.230;18.944;2023-10-13T04:05:36;26.75;;;17.17;;
63534;SDS011;55128;50.230;18.944;2023-10-13T04:10:40;27.77;;;21.75;;
63534;SDS011;55128;50.230;18.944;2023-10-13T04:15:53;29.00;;;20.90;;
63534;SDS011;55128;50.230;18.944;2023-10-13T04:21:11;27.42;;;19.85;;
63534;SDS011;55128;50.230;18.944;2023-10-13T04:26:32;28.92;;;21.25;;
63534;SDS011;55128;50.230;18.944;2023-10-13T04:31:42;22.52;;;16.83;;
63534;SDS011;55128;50.230;18.944;2023-10-13T04:37:02;24.67;;;18.60;;
63534;SDS011;55128;50.230;18.944;2023-10-13T04:42:23;29.50;;;20.08;;
63534;SDS011;55128;50.230;18.944;2023-10-13T04:47:39;28.58;;;21.30;;
63534;SDS011;55128;50.230;18.944;2023-10-13T04:52:56;32.03;;;22.58;;
63534;SDS011;55128;50.230;18.944;2023-10-13T04:58:13;34.13;;;27.38;;
63534;SDS011;55128;50.230;18.944;2023-10-13T05:03:31;26.13;;;20.13;;
63534;SDS011;55128;50.230;18.944;2023-10-13T05:08:53;32.15;;;24.67;;
63534;SDS011;55128;50.230;18.944;2023-10-13T05:14:12;35.83;;;23.02;;
63534;SDS011;55128;50.230;18.944;2023-10-13T05:19:31;30.42;;;22.73;;
63534;SDS011;55128;50.230;18.944;2023-10-13T05:24:50;26.70;;;21.25;;
63534;SDS011;55128;50.230;18.944;2023-10-13T05:30:09;28.17;;;22.33;;
63534;SDS011;55128;50.230;18.944;2023-10-13T05:35:30;25.88;;;20.50;;
63534;SDS011;55128;50.230;18.944;2023-10-13T05:40:53;24.48;;;19.88;;
63534;SDS011;55128;50.230;18.944;2023-10-13T05:46:14;29.63;;;21.85;;
63534;SDS011;55128;50.230;18.944;2023-10-13T05:51:27;27.25;;;22.23;;
63534;SDS011;55128;50.230;18.944;2023-10-13T05:56:37;33.17;;;23.70;;
63534;SDS011;55128;50.230;18.944;2023-10-13T06:01:56;30.30;;;24.77;;
63534;SDS011;55128;50.230;18.944;2023-10-13T06:07:15;26.27;;;22.13;;
63534;SDS011;55128;50.230;18.944;2023-10-13T06:12:34;28.27;;;21.80;;
63534;SDS011;55128;50.230;18.944;2023-10-13T06:17:58;23.95;;;21.02;;
63534;SDS011;55128;50.230;18.944;2023-10-13T06:23:16;29.30;;;19.55;;
63534;SDS011;55128;50.230;18.944;2023-10-13T06:28:35;26.23;;;18.88;;
63534;SDS011;55128;50.230;18.944;2023-10-13T06:33:41;24.30;;;18.17;;
63534;SDS011;55128;50.230;18.944;2023-10-13T06:38:45;19.17;;;14.73;;
63534;SDS011;55128;50.230;18.944;2023-10-13T06:43:55;22.95;;;15.50;;
63534;SDS011;55128;50.230;18.944;2023-10-13T06:49:01;18.85;;;12.30;;
63534;SDS011;55128;50.230;18.944;2023-10-13T06:54:02;18.63;;;11.82;;
63534;SDS011;55128;50.230;18.944;2023-10-13T06:59:03;15.90;;;11.80;;
63534;SDS011;55128;50.230;18.944;2023-10-13T07:04:07;18.02;;;12.15;;
63534;SDS011;55128;50.230;18.944;2023-10-13T07:09:15;17.20;;;11.93;;
63534;SDS011;55128;50.230;18.944;2023-10-13T07:14:36;16.98;;;12.10;;
63534;SDS011;55128;50.230;18.944;2023-10-13T07:19:37;17.63;;;11.30;;
63534;SDS011;55128;50.230;18.944;2023-10-13T07:24:53;16.58;;;11.93;;
63534;SDS011;55128;50.230;18.944;2023-10-13T07:29:56;19.52;;;12.38;;
63534;SDS011;55128;50.230;18.944;2023-10-13T07:35:17;15.00;;;10.95;;
63534;SDS011;55128;50.230;18.944;2023-10-13T07:40:20;16.60;;;11.90;;
63534;SDS011;55128;50.230;18.944;2023-10-13T07:45:23;17.50;;;11.07;;
63534;SDS011;55128;50.230;18.944;2023-10-13T07:50:33;16.30;;;10.20;;
63534;SDS011;55128;50.230;18.944;2023-10-13T07:55:34;13.20;;;10.18;;
63534;SDS011;55128;50.230;18.944;2023-10-13T08:00:39;18.63;;;11.75;;
63534;SDS011;55128;50.230;18.944;2023-10-13T08:05:51;15.88;;;11.18;;
63534;SDS011;55128;50.230;18.944;2023-10-13T08:10:58;16.73;;;11.05;;
63534;SDS011;55128;50.230;18.944;2023-10-13T08:16:08;15.00;;;9.35;;
63534;SDS011;55128;50.230;18.944;2023-10-13T08:21:09;12.20;;;8.93;;
63534;SDS011;55128;50.230;18.944;2023-10-13T08:26:16;11.82;;;8.52;;
63534;SDS011;55128;50.230;18.944;2023-10-13T08:31:35;11.95;;;7.50;;
63534;SDS011;55128;50.230;18.944;2023-10-13T08:36:41;13.80;;;7.63;;
63534;SDS011;55128;50.230;18.944;2023-10-13T08:41:41;13.68;;;8.80;;
63534;SDS011;55128;50.230;18.944;2023-10-13T08:47:14;8.60;;;7.38;;
63534;SDS011;55128;50.230;18.944;2023-10-13T08:52:24;9.70;;;6.70;;
63534;SDS011;55128;50.230;18.944;2023-10-13T08:57:57;12.65;;;6.95;;
63534;SDS011;55128;50.230;18.944;2023-10-13T09:03:12;9.95;;;5.35;;
63534;SDS011;55128;50.230;18.944;2023-10-13T09:08:29;11.35;;;6.15;;
63534;SDS011;55128;50.230;18.944;2023-10-13T09:13:35;7.03;;;4.70;;
63534;SDS011;55128;50.230;18.944;2023-10-13T09:18:43;10.00;;;4.70;;
63534;SDS011;55128;50.230;18.944;2023-10-13T09:23:47;11.45;;;4.95;;
63534;SDS011;55128;50.230;18.944;2023-10-13T09:28:48;9.55;;;5.38;;
63534;SDS011;55128;50.230;18.944;2023-10-13T09:33:53;7.57;;;4.85;;
63534;SDS011;55128;50.230;18.944;2023-10-13T09:38:55;7.55;;;4.95;;
63534;SDS011;55128;50.230;18.944;2023-10-13T09:44:29;7.97;;;4.88;;
63534;SDS011;55128;50.230;18.944;2023-10-13T09:49:31;8.05;;;5.03;;
63534;SDS011;55128;50.230;18.944;2023-10-13T09:55:03;6.97;;;4.67;;
63534;SDS011;55128;50.230;18.944;2023-10-13T10:00:13;8.38;;;4.65;;
63534;SDS011;55128;50.230;18.944;2023-10-13T10:05:36;7.35;;;4.82;;
63534;SDS011;55128;50.230;18.944;2023-10-13T10:16:10;8.93;;;4.82;;
63534;SDS011;55128;50.230;18.944;2023-10-13T10:21:19;7.90;;;5.00;;
63534;SDS011;55128;50.230;18.944;2023-10-13T10:26:22;8.48;;;5.13;;
63534;SDS011;55128;50.230;18.944;2023-10-13T10:31:31;12.07;;;5.10;;
63534;SDS011;55128;50.230;18.944;2023-10-13T10:36:34;9.70;;;5.50;;
63534;SDS011;55128;50.230;18.944;2023-10-13T10:41:36;9.27;;;5.85;;
63534;SDS011;55128;50.230;18.944;2023-10-13T10:46:43;8.27;;;5.00;;
63534;SDS011;55128;50.230;18.944;2023-10-13T10:52:00;6.43;;;4.53;;
63534;SDS011;55128;50.230;18.944;2023-10-13T10:57:01;9.68;;;4.20;;
63534;SDS011;55128;50.230;18.944;2023-10-13T11:02:11;7.05;;;4.95;;
63534;SDS011;55128;50.230;18.944;2023-10-13T11:07:20;9.30;;;4.45;;
63534;SDS011;55128;50.230;18.944;2023-10-13T11:12:24;8.65;;;4.47;;
63534;SDS011;55128;50.230;18.944;2023-10-13T11:17:25;7.07;;;4.68;;
63534;SDS011;55128;50.230;18.944;2023-10-13T11:22:47;10.18;;;4.97;;
63534;SDS011;55128;50.230;18.944;2023-10-13T11:27:50;8.32;;;4.43;;
63534;SDS011;55128;50.230;18.944;2023-10-13T11:33:09;8.43;;;4.50;;
63534;SDS011;55128;50.230;18.944;2023-10-13T11:38:10;6.15;;;4.40;;
63534;SDS011;55128;50.230;18.944;2023-10-13T11:43:14;8.05;;;4.72;;
63534;SDS011;55128;50.230;18.944;2023-10-13T11:48:15;6.45;;;4.30;;
63534;SDS011;55128;50.230;18.944;2023-10-13T11:53:16;7.55;;;4.57;;
63534;SDS011;55128;50.230;18.944;2023-10-13T11:58:16;6.63;;;4.43;;
63534;SDS011;55128;50.230;18.944;2023-10-13T12:03:17;5.82;;;4.20;;
63534;SDS011;55128;50.230;18.944;2023-10-13T12:08:36;8.65;;;5.40;;
63534;SDS011;55128;50.230;18.944;2023-10-13T12:13:49;13.48;;;9.77;;
63534;SDS011;55128;50.230;18.944;2023-10-13T12:18:49;9.48;;;3.95;;
63534;SDS011;55128;50.230;18.944;2023-10-13T12:23:53;9.25;;;3.92;;
63534;SDS011;55128;50.230;18.944;2023-10-13T12:28:54;7.35;;;3.60;;
63534;SDS011;55128;50.230;18.944;2023-10-13T12:34:05;6.05;;;3.40;;
63534;SDS011;55128;50.230;18.944;2023-10-13T12:39:17;6.63;;;3.55;;
63534;SDS011;55128;50.230;18.944;2023-10-13T12:44:36;7.38;;;4.03;;
63534;SDS011;55128;50.230;18.944;2023-10-13T12:49:55;9.98;;;4.30;;
63534;SDS011;55128;50.230;18.944;2023-10-13T12:54:59;7.20;;;3.75;;
63534;SDS011;55128;50.230;18.944;2023-10-13T13:00:06;6.43;;;3.35;;
63534;SDS011;55128;50.230;18.944;2023-10-13T13:05:18;6.82;;;3.38;;
63534;SDS011;55128;50.230;18.944;2023-10-13T13:10:22;5.47;;;2.97;;
63534;SDS011;55128;50.230;18.944;2023-10-13T13:15:35;7.60;;;4.05;;
63534;SDS011;55128;50.230;18.944;2023-10-13T13:20:35;7.27;;;3.93;;
63534;SDS011;55128;50.230;18.944;2023-10-13T13:25:39;5.93;;;3.60;;
63534;SDS011;55128;50.230;18.944;2023-10-13T13:30:42;6.13;;;4.20;;
63534;SDS011;55128;50.230;18.944;2023-10-13T13:35:43;6.72;;;3.65;;
63534;SDS011;55128;50.230;18.944;2023-10-13T13:40:43;5.93;;;3.50;;
63534;SDS011;55128;50.230;18.944;2023-10-13T13:45:49;6.20;;;3.33;;
63534;SDS011;55128;50.230;18.944;2023-10-13T13:50:49;6.82;;;3.42;;
63534;SDS011;55128;50.230;18.944;2023-10-13T13:55:52;4.13;;;3.00;;
63534;SDS011;55128;50.230;18.944;2023-10-13T14:00:52;9.05;;;3.40;;
63534;SDS011;55128;50.230;18.944;2023-10-13T14:06:00;9.15;;;3.63;;
63534;SDS011;55128;50.230;18.944;2023-10-13T14:11:01;4.35;;;3.10;;
63534;SDS011;55128;50.230;18.944;2023-10-13T14:16:17;5.10;;;3.07;;
63534;SDS011;55128;50.230;18.944;2023-10-13T14:21:18;5.00;;;2.80;;
63534;SDS011;55128;50.230;18.944;2023-10-13T14:26:24;5.53;;;3.58;;
63534;SDS011;55128;50.230;18.944;2023-10-13T14:31:27;4.85;;;3.53;;
63534;SDS011;55128;50.230;18.944;2023-10-13T14:36:28;9.95;;;4.75;;
63534;SDS011;55128;50.230;18.944;2023-10-13T14:41:29;7.82;;;3.63;;
63534;SDS011;55128;50.230;18.944;2023-10-13T14:46:29;6.32;;;4.10;;
63534;SDS011;55128;50.230;18.944;2023-10-13T14:51:30;6.23;;;3.87;;
63534;SDS011;55128;50.230;18.944;2023-10-13T14:56:31;6.97;;;3.80;;
63534;SDS011;55128;50.230;18.944;2023-10-13T15:01:31;4.70;;;3.60;;
63534;SDS011;55128;50.230;18.944;2023-10-13T15:06:32;7.07;;;4.13;;
63534;SDS011;55128;50.230;18.944;2023-10-13T15:11:32;7.13;;;4.00;;
63534;SDS011;55128;50.230;18.944;2023-10-13T15:16:40;11.77;;;4.45;;
63534;SDS011;55128;50.230;18.944;2023-10-13T15:21:43;6.30;;;3.75;;
63534;SDS011;55128;50.230;18.944;2023-10-13T15:26:49;6.93;;;4.28;;
63534;SDS011;55128;50.230;18.944;2023-10-13T15:31:49;6.00;;;3.63;;
63534;SDS011;55128;50.230;18.944;2023-10-13T15:36:59;6.75;;;4.50;;
63534;SDS011;55128;50.230;18.944;2023-10-13T15:42:00;8.68;;;4.28;;
63534;SDS011;55128;50.230;18.944;2023-10-13T15:47:02;8.30;;;4.97;;
63534;SDS011;55128;50.230;18.944;2023-10-13T15:52:02;8.55;;;4.75;;
63534;SDS011;55128;50.230;18.944;2023-10-13T15:57:04;9.70;;;5.07;;
63534;SDS011;55128;50.230;18.944;2023-10-13T16:02:07;10.80;;;4.85;;
63534;SDS011;55128;50.230;18.944;2023-10-13T16:07:12;7.45;;;5.00;;
63534;SDS011;55128;50.230;18.944;2023-10-13T16:12:12;7.72;;;5.18;;
63534;SDS011;55128;50.230;18.944;2023-10-13T16:17:15;8.35;;;5.30;;
63534;SDS011;55128;50.230;18.944;2023-10-13T16:22:15;11.60;;;5.77;;
63534;SDS011;55128;50.230;18.944;2023-10-13T16:27:16;11.45;;;5.85;;
63534;SDS011;55128;50.230;18.944;2023-10-13T16:32:19;11.18;;;6.07;;
63534;SDS011;55128;50.230;18.944;2023-10-13T16:37:19;11.38;;;6.15;;
63534;SDS011;55128;50.230;18.944;2023-10-13T16:42:20;11.80;;;6.97;;
63534;SDS011;55128;50.230;18.944;2023-10-13T16:47:20;11.97;;;6.80;;
63534;SDS011;55128;50.230;18.944;2023-10-13T16:52:20;10.53;;;8.13;;
63534;SDS011;55128;50.230;18.944;2023-10-13T16:57:21;10.70;;;7.77;;
63534;SDS011;55128;50.230;18.944;2023-10-13T17:02:21;12.73;;;8.37;;
63534;SDS011;55128;50.230;18.944;2023-10-13T17:07:21;16.17;;;11.65;;
63534;SDS011;55128;50.230;18.944;2023-10-13T17:12:22;11.48;;;7.72;;
63534;SDS011;55128;50.230;18.944;2023-10-13T17:17:23;11.23;;;7.03;;
63534;SDS011;55128;50.230;18.944;2023-10-13T17:22:24;14.20;;;8.93;;
63534;SDS011;55128;50.230;18.944;2023-10-13T17:27:24;11.02;;;7.35;;
63534;SDS011;55128;50.230;18.944;2023-10-13T17:32:24;17.13;;;9.70;;
63534;SDS011;55128;50.230;18.944;2023-10-13T17:37:25;10.52;;;6.55;;
63534;SDS011;55128;50.230;18.944;2023-10-13T17:42:26;11.40;;;7.22;;
63534;SDS011;55128;50.230;18.944;2023-10-13T17:47:27;16.42;;;8.20;;
63534;SDS011;55128;50.230;18.944;2023-10-13T17:52:27;17.83;;;9.87;;
63534;SDS011;55128;50.230;18.944;2023-10-13T17:57:27;17.07;;;9.57;;
63534;SDS011;55128;50.230;18.944;2023-10-13T18:02:28;14.33;;;8.87;;
63534;SDS011;55128;50.230;18.944;2023-10-13T18:07:29;13.55;;;7.72;;
63534;SDS011;55128;50.230;18.944;2023-10-13T18:12:29;13.88;;;7.88;;
63534;SDS011;55128;50.230;18.944;2023-10-13T18:17:29;16.27;;;7.30;;
63534;SDS011;55128;50.230;18.944;2023-10-13T18:22:32;11.77;;;7.22;;
63534;SDS011;55128;50.230;18.944;2023-10-13T18:27:32;15.20;;;7.15;;
63534;SDS011;55128;50.230;18.944;2023-10-13T18:32:32;12.27;;;6.83;;
63534;SDS011;55128;50.230;18.944;2023-10-13T18:37:34;14.20;;;6.97;;
63534;SDS011;55128;50.230;18.944;2023-10-13T18:42:38;9.40;;;6.88;;
63534;SDS011;55128;50.230;18.944;2023-10-13T18:47:42;12.02;;;7.25;;
63534;SDS011;55128;50.230;18.944;2023-10-13T18:52:45;18.60;;;9.23;;
63534;SDS011;55128;50.230;18.944;2023-10-13T18:57:46;18.48;;;11.18;;
63534;SDS011;55128;50.230;18.944;2023-10-13T19:02:46;13.80;;;10.30;;
63534;SDS011;55128;50.230;18.944;2023-10-13T19:07:47;15.38;;;8.35;;
63534;SDS011;55128;50.230;18.944;2023-10-13T19:12:50;11.18;;;8.20;;
63534;SDS011;55128;50.230;18.944;2023-10-13T19:17:54;12.90;;;7.38;;
63534;SDS011;55128;50.230;18.944;2023-10-13T19:22:54;14.45;;;6.30;;
63534;SDS011;55128;50.230;18.944;2023-10-13T19:27:55;12.20;;;6.20;;
63534;SDS011;55128;50.230;18.944;2023-10-13T19:32:55;12.85;;;6.25;;
63534;SDS011;55128;50.230;18.944;2023-10-13T19:37:56;8.95;;;6.28;;
63534;SDS011;55128;50.230;18.944;2023-10-13T19:42:56;11.83;;;6.27;;
63534;SDS011;55128;50.230;18.944;2023-10-13T19:47:56;12.77;;;6.57;;
63534;SDS011;55128;50.230;18.944;2023-10-13T19:52:57;9.57;;;6.30;;
63534;SDS011;55128;50.230;18.944;2023-10-13T19:58:00;10.98;;;6.93;;
63534;SDS011;55128;50.230;18.944;2023-10-13T20:03:00;10.97;;;6.20;;
63534;SDS011;55128;50.230;18.944;2023-10-13T20:08:01;12.88;;;6.43;;
63534;SDS011;55128;50.230;18.944;2023-10-13T20:13:04;13.80;;;8.07;;
63534;SDS011;55128;50.230;18.944;2023-10-13T20:18:06;11.38;;;7.07;;
63534;SDS011;55128;50.230;18.944;2023-10-13T20:23:08;13.13;;;6.97;;
63534;SDS011;55128;50.230;18.944;2023-10-13T20:28:12;14.77;;;7.22;;
63534;SDS011;55128;50.230;18.944;2023-10-13T20:33:14;14.90;;;7.68;;
63534;SDS011;55128;50.230;18.944;2023-10-13T20:38:20;10.57;;;6.78;;
63534;SDS011;55128;50.230;18.944;2023-10-13T20:43:20;13.02;;;7.18;;
63534;SDS011;55128;50.230;18.944;2023-10-13T20:48:22;12.95;;;8.13;;
63534;SDS011;55128;50.230;18.944;2023-10-13T20:53:24;14.35;;;8.07;;
63534;SDS011;55128;50.230;18.944;2023-10-13T20:58:26;16.45;;;9.70;;
63534;SDS011;55128;50.230;18.944;2023-10-13T21:03:27;15.40;;;9.45;;
63534;SDS011;55128;50.230;18.944;2023-10-13T21:08:28;17.98;;;8.93;;
63534;SDS011;55128;50.230;18.944;2023-10-13T21:13:29;18.15;;;15.02;;
63534;SDS011;55128;50.230;18.944;2023-10-13T21:18:29;14.88;;;11.95;;
63534;SDS011;55128;50.230;18.944;2023-10-13T21:23:30;16.58;;;11.18;;
63534;SDS011;55128;50.230;18.944;2023-10-13T21:28:32;19.60;;;11.18;;
63534;SDS011;55128;50.230;18.944;2023-10-13T21:33:33;19.60;;;9.80;;
63534;SDS011;55128;50.230;18.944;2023-10-13T21:38:33;12.70;;;8.88;;
63534;SDS011;55128;50.230;18.944;2023-10-13T21:43:33;11.73;;;7.97;;
63534;SDS011;55128;50.230;18.944;2023-10-13T21:48:34;14.63;;;9.63;;
63534;SDS011;55128;50.230;18.944;2023-10-13T21:53:38;13.77;;;9.90;;
63534;SDS011;55128;50.230;18.944;2023-10-13T21:58:38;15.85;;;9.68;;
63534;SDS011;55128;50.230;18.944;2023-10-13T22:03:38;16.02;;;9.73;;
63534;SDS011;55128;50.230;18.944;2023-10-13T22:08:43;11.07;;;8.23;;
63534;SDS011;55128;50.230;18.944;2023-10-13T22:13:43;14.50;;;9.95;;
63534;SDS011;55128;50.230;18.944;2023-10-13T22:18:48;13.05;;;9.10;;
63534;SDS011;55128;50.230;18.944;2023-10-13T22:23:49;16.85;;;9.57;;
63534;SDS011;55128;50.230;18.944;2023-10-13T22:28:49;14.10;;;9.10;;
63534;SDS011;55128;50.230;18.944;2023-10-13T22:33:50;13.10;;;8.57;;
63534;SDS011;55128;50.230;18.944;2023-10-13T22:38:55;14.75;;;9.77;;
63534;SDS011;55128;50.230;18.944;2023-10-13T22:43:58;11.85;;;9.18;;
63534;SDS011;55128;50.230;18.944;2023-10-13T22:48:58;17.58;;;10.00;;
63534;SDS011;55128;50.230;18.944;2023-10-13T22:53:59;15.20;;;9.95;;
63534;SDS011;55128;50.230;18.944;2023-10-13T22:58:59;15.57;;;9.13;;
63534;SDS011;55128;50.230;18.944;2023-10-13T23:04:00;16.07;;;8.70;;
63534;SDS011;55128;50.230;18.944;2023-10-13T23:09:00;12.75;;;8.57;;
63534;SDS011;55128;50.230;18.944;2023-10-13T23:14:11;16.08;;;11.20;;
63534;SDS011;55128;50.230;18.944;2023-10-13T23:19:11;16.15;;;9.75;;
63534;SDS011;55128;50.230;18.944;2023-10-13T23:24:12;14.90;;;9.80;;
63534;SDS011;55128;50.230;18.944;2023-10-13T23:29:12;13.93;;;9.07;;
63534;SDS011;55128;50.230;18.944;2023-10-13T23:34:12;13.90;;;9.27;;
63534;SDS011;55128;50.230;18.944;2023-10-13T23:39:16;15.85;;;8.43;;
63534;SDS011;55128;50.230;18.944;2023-10-13T23:44:32;16.90;;;8.65;;
63534;SDS011;55128;50.230;18.944;2023-10-13T23:49:33;14.30;;;11.13;;
63534;SDS011;55128;50.230;18.944;2023-10-13T23:54:33;21.37;;;17.80;;
63534;SDS011;55128;50.230;18.944;2023-10-13T23:59:38;19.60;;;14.98;;
